Terminal Aerodrome Forecast
Issued by NWS

Home | Current Version | Previous Version | Text Only | Print | Product List | Glossary On
Versions: 1 2 3 4 5 6 7 8 9 10 11 12
727
FTUS44 KBMX 111723
TAFTOI
TAF
KTOI 111723Z 1118/1218 25010KT P6SM SCT050
     FM120000 VRB03KT P6SM BKN050
     FM121500 27009KT P6SM SCT050=

USA.gov is the U.S. government's official web portal to all federal, state and local government web resources and services.